Time;durP1;ratioP1;P1;durP2;ratioP2;P2;SDS_P1;SDS_P2;PMS_P1;PMS_P2;Temp;Humidity;BMP_temperature;BMP_pressure;BME280_temperature;BME280_humidity;BME280_pressure;Samples;Min_cycle;Max_cycle;Signal;HPM_P1;HPM_P2
2022/09/05 00:02:41;;;;;;;5.03;3.50;;;;;;;20.19;100.00;96813.78;5136070;27;20465;-48
2022/09/05 00:05:24;;;;;;;5.13;3.95;;;;;;;20.05;100.00;96806.69;5138265;27;20062;-52
2022/09/05 00:08:01;;;;;;;4.70;3.80;;;;;;;19.54;100.00;96805.00;5139086;27;20539;-48
2022/09/05 00:10:37;;;;;;;5.93;3.55;;;;;;;18.98;100.00;96803.03;5134387;27;20460;-50
2022/09/05 00:13:29;;;;;;;5.05;4.03;;;;;;;19.26;100.00;96806.81;5140520;27;20088;-46
2022/09/05 00:16:04;;;;;;;5.88;4.00;;;;;;;19.67;100.00;96799.00;5134049;27;20075;-51
2022/09/05 00:18:52;;;;;;;10.48;4.47;;;;;;;19.80;100.00;96796.41;5137255;27;20509;-50
2022/09/05 00:21:50;;;;;;;5.22;3.78;;;;;;;19.70;100.00;96800.47;5140390;27;20082;-45
2022/09/05 00:24:47;;;;;;;6.65;3.95;;;;;;;19.95;100.00;96798.16;5143850;27;20090;-53
2022/09/05 00:27:45;;;;;;;4.18;3.35;;;;;;;19.72;100.00;96795.72;5142191;27;20074;-51
2022/09/05 00:30:15;;;;;;;4.55;3.13;;;;;;;19.72;100.00;96787.69;5136738;27;20078;-52
2022/09/05 00:33:22;;;;;;;4.75;3.30;;;;;;;19.55;100.00;96795.16;5135561;27;20082;-45
2022/09/05 00:36:06;;;;;;;4.82;3.38;;;;;;;19.48;100.00;96784.41;5136269;27;20070;-53
2022/09/05 00:38:35;;;;;;;5.10;3.28;;;;;;;19.58;100.00;96784.91;5135522;27;20066;-49
2022/09/05 00:41:07;;;;;;;5.63;3.70;;;;;;;19.69;100.00;96802.31;5138229;27;20105;-50
2022/09/05 00:43:35;;;;;;;;;;;;;;;19.68;100.00;96801.50;5139344;27;20504;-48
2022/09/05 00:46:09;;;;;;;3.50;3.20;;;;;;;19.65;100.00;96801.88;5137753;27;20403;-50
2022/09/05 00:48:45;;;;;;;5.35;3.35;;;;;;;19.59;100.00;96799.09;5138761;27;20633;-51
2022/09/05 00:51:22;;;;;;;4.35;3.65;;;;;;;19.56;100.00;96808.34;5135861;27;20493;-51
2022/09/05 00:54:29;;;;;;;6.20;3.78;;;;;;;19.49;100.00;96804.78;5141275;27;20460;-54
2022/09/05 00:57:27;;;;;;;4.85;3.92;;;;;;;19.41;100.00;96804.91;5139149;27;20078;-51
2022/09/05 01:00:06;;;;;;;4.05;3.42;;;;;;;19.44;100.00;96802.69;5137964;27;20060;-48
2022/09/05 01:02:55;;;;;;;6.82;3.65;;;;;;;19.48;100.00;96802.28;5140816;27;20067;-51
2022/09/05 01:05:36;;;;;;;4.15;3.58;;;;;;;19.50;100.00;96798.41;5134514;27;20086;-52
2022/09/05 01:08:35;;;;;;;5.03;4.13;;;;;;;19.30;100.00;96808.91;5140347;27;20066;-50
2022/09/05 01:11:10;;;;;;;5.70;5.05;;;;;;;18.46;100.00;96812.03;5137973;27;20070;-50
2022/09/05 01:13:46;;;;;;;11.93;5.40;;;;;;;18.73;100.00;96818.56;5138451;27;20078;-53
2022/09/05 01:16:22;;;;;;;9.13;5.90;;;;;;;18.62;100.00;96816.38;5140779;27;20062;-52
2022/09/05 01:18:59;;;;;;;9.73;6.07;;;;;;;18.73;100.00;96812.41;5135061;27;20070;-48
2022/09/05 01:22:04;;;;;;;7.53;5.50;;;;;;;18.79;100.00;96806.31;5137874;27;20067;-49
2022/09/05 01:24:45;;;;;;;6.85;4.70;;;;;;;18.66;100.00;96806.97;5143509;27;20063;-52
2022/09/05 01:27:33;;;;;;;;;;;;;;;18.94;100.00;96800.94;5139362;27;20063;-49
2022/09/05 01:30:24;;;;;;;4.90;3.88;;;;;;;18.87;100.00;96805.38;5134963;27;19970;-50
2022/09/05 01:33:07;;;;;;;5.65;4.38;;;;;;;18.94;100.00;96795.59;5134107;27;20659;-47
2022/09/05 01:35:44;;;;;;;5.45;4.18;;;;;;;19.09;100.00;96801.69;5141126;27;20547;-52
2022/09/05 01:38:37;;;;;;;7.20;5.10;;;;;;;18.83;100.00;96809.44;5138815;27;20066;-51
2022/09/05 01:41:18;;;;;;;6.45;5.18;;;;;;;18.91;100.00;96810.16;5138553;27;20512;-50
2022/09/05 01:44:06;;;;;;;8.25;5.57;;;;;;;18.94;100.00;96814.28;5143525;27;20464;-53
2022/09/05 01:46:42;;;;;;;8.52;4.60;;;;;;;18.70;100.00;96816.25;5140226;27;20077;-48
2022/09/05 01:49:23;;;;;;;8.32;4.90;;;;;;;18.80;100.00;96823.19;5141192;27;20086;-49
2022/09/05 01:52:20;;;;;;;5.25;4.65;;;;;;;18.77;100.00;96819.03;5138766;27;20062;-45
2022/09/05 01:55:01;;;;;;;8.02;4.28;;;;;;;18.59;100.00;96821.25;5143590;27;20086;-51
2022/09/05 01:57:38;;;;;;;5.80;5.05;;;;;;;18.48;100.00;96819.88;5138701;27;21760;-47
2022/09/05 02:00:11;;;;;;;7.25;4.88;;;;;;;18.65;100.00;96812.47;5137496;27;20075;-52
2022/09/05 02:02:51;;;;;;;5.65;4.88;;;;;;;18.53;100.00;96811.31;5139574;27;20083;-48
2022/09/05 02:05:49;;;;;;;7.60;5.45;;;;;;;18.55;100.00;96817.28;5139259;27;20078;-46
2022/09/05 02:08:27;;;;;;;7.22;5.10;;;;;;;18.47;100.00;96816.34;5135406;27;20105;-51
2022/09/05 02:11:04;;;;;;;5.47;4.57;;;;;;;18.62;100.00;96818.22;5136193;27;20085;-50
2022/09/05 02:13:53;;;;;;;23.95;4.70;;;;;;;18.68;100.00;96812.09;5134686;27;20089;-51
2022/09/05 02:16:28;;;;;;;5.35;4.63;;;;;;;18.63;100.00;96820.69;5136726;27;20083;-49
2022/09/05 02:19:00;;;;;;;8.05;4.30;;;;;;;18.82;100.00;96821.13;5133135;27;20074;-53
2022/09/05 02:21:38;;;;;;;5.22;3.97;;;;;;;18.80;100.00;96816.00;5134598;27;20093;-46
2022/09/05 02:24:28;;;;;;;5.60;4.25;;;;;;;18.83;100.00;96822.81;5136888;27;20607;-53
2022/09/05 02:27:09;;;;;;;6.25;4.20;;;;;;;18.67;100.00;96824.63;5130036;27;20090;-51
2022/09/05 02:30:07;;;;;;;6.93;3.60;;;;;;;18.63;100.00;96818.00;5138690;27;20097;-46
2022/09/05 02:32:47;;;;;;;5.68;4.00;;;;;;;18.24;100.00;96826.34;5140083;27;20114;-50
2022/09/05 02:35:20;;;;;;;5.13;3.90;;;;;;;18.02;100.00;96820.03;5142793;27;20481;-48
2022/09/05 02:37:51;;;;;;;4.22;3.50;;;;;;;18.44;100.00;96816.75;5133177;27;20087;-46
2022/09/05 02:40:43;;;;;;;7.35;3.40;;;;;;;18.54;100.00;96818.28;5141293;27;20085;-55
2022/09/05 02:43:36;;;;;;;5.07;3.60;;;;;;;18.36;100.00;96824.84;5143777;27;20494;-50
2022/09/05 02:46:29;;;;;;;7.00;3.88;;;;;;;18.57;100.00;96815.25;5139173;27;20093;-51
2022/09/05 02:49:05;;;;;;;7.50;3.75;;;;;;;18.55;100.00;96817.28;5147076;27;20082;-47
2022/09/05 02:51:58;;;;;;;6.15;4.38;;;;;;;18.32;100.00;96812.88;5144348;27;20086;-47
2022/09/05 02:54:48;;;;;;;7.78;4.93;;;;;;;17.62;100.00;96811.41;5129922;27;20986;-46
2022/09/05 02:57:41;;;;;;;5.55;4.30;;;;;;;17.36;100.00;96814.44;5129870;27;20127;-48
2022/09/05 03:00:38;;;;;;;4.70;4.20;;;;;;;17.26;100.00;96817.31;5132102;27;20074;-46
2022/09/05 03:03:19;;;;;;;5.20;3.72;;;;;;;17.81;100.00;96811.91;5138850;27;20078;-50
2022/09/05 03:05:55;;;;;;;3.45;3.15;;;;;;;17.40;100.00;96809.56;5133893;27;20085;-46
2022/09/05 03:08:52;;;;;;;4.20;3.80;;;;;;;17.86;100.00;96817.53;5140127;27;20082;-47
2022/09/05 03:12:02;;;;;;;4.07;3.58;;;;;;;17.93;100.00;96821.97;5122601;27;20086;-46
2022/09/05 03:15:31;;;;;;;4.40;3.90;;;;;;;18.18;100.00;96827.88;5127415;27;20523;-50
2022/09/05 03:18:18;;;;;;;6.65;4.13;;;;;;;17.81;100.00;96827.91;5141573;27;20171;-48
2022/09/05 03:21:32;;;;;;;5.88;4.32;;;;;;;17.27;100.00;96837.66;5130918;27;20562;-48
2022/09/05 03:24:29;;;;;;;6.63;4.68;;;;;;;17.67;100.00;96827.66;5139671;27;20082;-45
2022/09/05 03:27:36;;;;;;;4.78;4.22;;;;;;;17.54;100.00;96824.78;5136670;27;20066;-48
2022/09/05 03:30:14;;;;;;;5.15;4.07;;;;;;;17.52;100.00;96826.81;5129770;27;20089;-49
2022/09/05 03:33:22;;;;;;;4.68;4.22;;;;;;;17.87;100.00;96832.53;5137539;27;20166;-45
2022/09/05 03:36:24;;;;;;;6.35;4.47;;;;;;;17.84;100.00;96827.56;5126007;27;20085;-48
2022/09/05 03:39:22;;;;;;;6.40;5.00;;;;;;;17.76;100.00;96823.97;5135074;27;20461;-50
2022/09/05 03:42:03;;;;;;;6.10;4.80;;;;;;;17.47;100.00;96823.84;5134659;27;20115;-48
2022/09/05 03:45:11;;;;;;;6.55;5.07;;;;;;;17.51;100.00;96831.28;5137573;27;20070;-45
2022/09/05 03:47:53;;;;;;;6.57;4.50;;;;;;;17.29;100.00;96826.81;5132619;27;20120;-48
2022/09/05 03:50:49;;;;;;;6.50;5.25;;;;;;;17.35;100.00;96830.63;5138188;27;20081;-47
2022/09/05 03:54:04;;;;;;;8.05;6.20;;;;;;;17.43;100.00;96828.69;5137390;27;20075;-52
2022/09/05 03:57:17;;;;;;;5.93;5.10;;;;;;;17.27;100.00;96824.34;5134542;27;20066;-53
2022/09/05 04:00:10;;;;;;;8.40;5.80;;;;;;;17.39;100.00;96823.91;5133546;27;20085;-50
2022/09/05 04:02:46;;;;;;;8.50;6.00;;;;;;;17.31;100.00;96827.47;5137835;27;20461;-46
2022/09/05 04:05:38;;;;;;;7.15;5.97;;;;;;;17.33;100.00;96831.59;5138251;27;20071;-45
2022/09/05 04:08:35;;;;;;;7.75;6.03;;;;;;;17.19;100.00;96842.19;5144323;27;20070;-47
2022/09/05 04:11:15;;;;;;;7.50;5.82;;;;;;;17.43;100.00;96834.03;5139555;27;20071;-47
2022/09/05 04:13:48;;;;;;;8.30;6.00;;;;;;;17.33;100.00;96826.25;5138890;27;20070;-45
2022/09/05 04:16:18;;;;;;;7.50;6.57;;;;;;;17.08;100.00;96828.28;5137789;27;20071;-45
2022/09/05 04:18:50;;;;;;;6.82;5.43;;;;;;;16.74;100.00;96830.44;5134176;27;20078;-48
2022/09/05 04:21:23;;;;;;;6.05;5.45;;;;;;;16.94;100.00;96830.88;5133135;27;20078;-48
2022/09/05 04:24:02;;;;;;;6.00;5.40;;;;;;;16.74;100.00;96827.78;5136547;27;20085;-45
2022/09/05 04:27:00;;;;;;;6.90;6.20;;;;;;;16.30;100.00;96823.78;5135175;27;20137;-45
2022/09/05 04:29:39;;;;;;;7.97;5.50;;;;;;;16.61;100.00;96828.31;5132265;27;20089;-48
2022/09/05 04:32:16;;;;;;;6.07;5.10;;;;;;;16.85;100.00;96827.41;5130963;27;20082;-47
2022/09/05 04:35:07;;;;;;;6.47;5.38;;;;;;;17.04;100.00;96831.47;5146751;27;20486;-54
2022/09/05 04:37:41;;;;;;;7.45;5.15;;;;;;;17.26;100.00;96829.81;5138789;27;20066;-52
2022/09/05 04:40:44;;;;;;;6.05;5.22;;;;;;;17.20;100.00;96826.03;5150539;27;20074;-47
2022/09/05 04:43:22;;;;;;;6.20;5.05;;;;;;;17.23;100.00;96832.84;5148088;27;20082;-49
2022/09/05 04:45:53;;;;;;;5.90;5.22;;;;;;;17.38;100.00;96831.09;5137321;27;20456;-53
2022/09/05 04:48:24;;;;;;;6.43;4.47;;;;;;;17.61;100.00;96831.03;5143559;27;20078;-44
2022/09/05 04:51:02;;;;;;;5.55;4.90;;;;;;;17.58;100.00;96834.06;5142202;27;20093;-48
2022/09/05 04:53:39;;;;;;;7.67;4.90;;;;;;;17.53;100.00;96834.63;5141862;27;20073;-49
2022/09/05 04:56:13;;;;;;;6.97;5.20;;;;;;;17.56;100.00;96834.25;5144678;27;20891;-50
2022/09/05 04:58:47;;;;;;;7.43;5.00;;;;;;;17.44;100.00;96841.00;5136552;27;20089;-49
2022/09/05 05:01:40;;;;;;;5.90;4.60;;;;;;;17.38;100.00;96840.91;5134914;27;20080;-47
2022/09/05 05:04:29;;;;;;;5.35;4.68;;;;;;;18.13;100.00;96837.44;5141830;27;20085;-51
2022/09/05 05:07:20;;;;;;;5.35;4.20;;;;;;;18.59;100.00;96839.94;5147002;27;20067;-52
2022/09/05 05:09:52;;;;;;;4.53;4.05;;;;;;;19.23;100.00;96847.31;5139590;27;20081;-54
2022/09/05 05:12:53;;;;;;;5.97;4.10;;;;;;;19.51;100.00;96845.56;5142570;27;20080;-50
2022/09/05 05:15:48;;;;;;;4.63;4.20;;;;;;;18.92;100.00;96861.75;5143512;27;20054;-50
2022/09/05 05:18:40;;;;;;;4.35;3.95;;;;;;;18.26;100.00;96867.00;5137469;27;20502;-47
2022/09/05 05:21:27;;;;;;;6.50;3.88;;;;;;;18.61;100.00;96861.94;5142703;27;20079;-48
2022/09/05 05:23:57;;;;;;;5.13;4.63;;;;;;;18.82;100.00;96864.72;5143492;27;20478;-50
2022/09/05 05:26:29;;;;;;;5.38;4.15;;;;;;;18.74;100.00;96862.16;5137592;27;20078;-46
2022/09/05 05:29:00;;;;;;;3.30;3.00;;;;;;;19.17;100.00;96873.78;5130405;27;20708;-48
2022/09/05 05:31:31;;;;;;;4.22;2.88;;;;;;;18.99;100.00;96868.00;5148718;27;20719;-48
2022/09/05 05:34:02;;;;;;;4.07;3.70;;;;;;;18.91;100.00;96868.13;5140492;27;20074;-47
2022/09/05 05:36:52;;;;;;;;;;;;;;;19.30;100.00;96869.59;5148746;27;20108;-47
2022/09/05 05:39:28;;;;;;;4.85;4.05;;;;;;;19.55;100.00;96873.56;5143309;27;19955;-51
2022/09/05 05:41:58;;;;;;;3.92;3.53;;;;;;;19.60;100.00;96873.00;5150093;27;20089;-50
2022/09/05 05:44:49;;;;;;;4.55;4.13;;;;;;;19.91;100.00;96875.34;5141560;27;20077;-45
2022/09/05 05:47:24;;;;;;;4.60;4.20;;;;;;;20.02;100.00;96882.03;5143072;27;20082;-49
2022/09/05 05:50:02;;;;;;;6.28;4.72;;;;;;;20.28;100.00;96873.38;5143530;27;20695;-50
2022/09/05 05:52:49;;;;;;;6.22;5.43;;;;;;;20.43;100.00;96875.94;5142081;27;20071;-49
2022/09/05 05:55:41;;;;;;;6.93;6.18;;;;;;;20.54;100.00;96872.75;5133479;27;20075;-48
2022/09/05 05:58:34;;;;;;;7.57;6.30;;;;;;;20.70;100.00;96868.94;5136840;27;20102;-48
2022/09/05 06:01:41;;;;;;;8.50;6.13;;;;;;;20.89;100.00;96873.56;5129079;27;20101;-47
2022/09/05 06:04:46;;;;;;;6.22;5.57;;;;;;;21.06;100.00;96880.25;5146145;27;20074;-47
2022/09/05 06:07:22;;;;;;;7.18;6.15;;;;;;;21.28;100.00;96880.09;5147326;27;20099;-53
2022/09/05 06:10:29;;;;;;;9.10;6.55;;;;;;;21.38;100.00;96880.56;5140399;27;20086;-50
2022/09/05 06:13:45;;;;;;;8.93;6.80;;;;;;;21.32;100.00;96887.53;5133268;27;20071;-49
2022/09/05 06:17:04;;;;;;;7.55;6.55;;;;;;;21.78;100.00;96881.47;5140359;27;20173;-47
2022/09/05 06:20:02;;;;;;;9.30;7.95;;;;;;;21.52;100.00;96884.94;5144634;27;20446;-49
2022/09/05 06:23:09;;;;;;;9.68;8.05;;;;;;;21.87;100.00;96889.31;5143067;27;20074;-44
2022/09/05 06:26:41;;;;;;;9.57;7.75;;;;;;;21.93;100.00;96885.81;5144038;27;20704;-49
2022/09/05 06:29:20;;;;;;;8.50;7.60;;;;;;;22.21;100.00;96882.97;5139547;27;20516;-52
2022/09/05 06:32:01;;;;;;;10.45;7.85;;;;;;;22.41;100.00;96889.16;5136201;27;20078;-47
2022/09/05 06:34:50;;;;;;;9.98;7.63;;;;;;;22.39;100.00;96893.06;5145191;27;20078;-49
2022/09/05 06:37:25;;;;;;;8.35;7.40;;;;;;;22.31;100.00;96890.59;5148775;27;20077;-50
2022/09/05 06:40:04;;;;;;;10.63;7.45;;;;;;;22.82;100.00;96887.22;5152547;27;20075;-51
2022/09/05 06:42:37;;;;;;;7.90;7.00;;;;;;;22.64;100.00;96888.69;5146409;27;20122;-52
2022/09/05 06:45:26;;;;;;;8.23;6.68;;;;;;;23.32;100.00;96885.56;5145808;27;20081;-46
2022/09/05 06:48:02;;;;;;;9.93;7.47;;;;;;;23.50;100.00;96889.41;5134470;27;20059;-48
2022/09/05 06:50:44;;;;;;;8.25;7.07;;;;;;;23.60;100.00;96887.06;5139054;27;20086;-49
2022/09/05 06:54:08;;;;;;;8.85;6.68;;;;;;;23.32;100.00;96888.25;5144725;27;20083;-53
2022/09/05 06:56:47;;;;;;;10.05;7.00;;;;;;;24.26;100.00;96886.63;5134385;27;20090;-50
2022/09/05 06:59:48;;;;;;;8.30;6.47;;;;;;;24.09;100.00;96877.44;5140646;27;20079;-49
2022/09/05 07:02:20;;;;;;;9.05;6.25;;;;;;;24.12;100.00;96875.13;5144256;27;20458;-47
2022/09/05 07:05:20;;;;;;;7.43;6.63;;;;;;;23.97;100.00;96882.72;5147506;27;20519;-49
2022/09/05 07:08:25;;;;;;;7.80;6.50;;;;;;;24.20;100.00;96876.72;5139513;27;20436;-50
2022/09/05 07:11:07;;;;;;;6.68;5.93;;;;;;;24.13;100.00;96881.34;5141967;27;20059;-49
2022/09/05 07:13:57;;;;;;;6.20;5.60;;;;;;;23.98;100.00;96875.44;5138044;27;20520;-47
2022/09/05 07:16:40;;;;;;;8.93;5.53;;;;;;;23.95;100.00;96886.66;5146203;27;20081;-51
2022/09/05 07:19:25;;;;;;;9.13;5.90;;;;;;;24.37;100.00;96891.28;5140713;27;20078;-49
2022/09/05 07:22:17;;;;;;;6.90;5.75;;;;;;;24.67;100.00;96887.91;5147587;27;20501;-51
2022/09/05 07:25:09;;;;;;;8.18;5.53;;;;;;;24.41;100.00;96891.72;5147312;27;20070;-49
2022/09/05 07:27:41;;;;;;;6.78;5.53;;;;;;;25.25;100.00;96879.38;5139835;27;20074;-48
2022/09/05 07:30:31;;;;;;;5.68;5.07;;;;;;;24.44;100.00;96890.44;5148849;27;20461;-48
2022/09/05 07:33:00;;;;;;;5.90;5.40;;;;;;;24.61;100.00;96891.53;5150344;27;20494;-52
2022/09/05 07:35:30;;;;;;;6.63;4.70;;;;;;;24.59;100.00;96889.03;5150988;27;20408;-47
2022/09/05 07:38:13;;;;;;;5.82;5.20;;;;;;;24.49;100.00;96899.50;5141914;27;20074;-48
2022/09/05 07:40:49;;;;;;;6.78;4.78;;;;;;;25.62;100.00;96892.00;5149460;27;20073;-49
2022/09/05 07:43:22;;;;;;;5.60;4.80;;;;;;;24.94;100.00;96899.25;5141756;27;20070;-48
2022/09/05 07:46:02;;;;;;;5.95;4.80;;;;;;;25.65;100.00;96897.75;5137641;27;20066;-47
2022/09/05 07:48:34;;;;;;;5.47;4.78;;;;;;;25.31;100.00;96894.69;5149850;27;20070;-46
2022/09/05 07:51:05;;;;;;;5.57;4.97;;;;;;;24.85;100.00;96903.31;5139604;27;20090;-49
2022/09/05 07:53:53;;;;;;;;;;;;;;;26.17;100.00;96892.63;5134496;27;20079;-49
2022/09/05 07:56:47;;;;;;;5.93;4.63;;;;;;;25.61;100.00;96893.88;5138520;27;19950;-48
2022/09/05 07:59:38;;;;;;;5.65;5.00;;;;;;;25.19;100.00;96895.66;5134872;27;20519;-52
2022/09/05 08:02:08;;;;;;;5.53;4.55;;;;;;;25.44;100.00;96893.69;5148025;27;20070;-52
2022/09/05 08:04:39;;;;;;;6.25;4.68;;;;;;;27.28;100.00;96900.84;5144835;27;20070;-48
2022/09/05 08:07:11;;;;;;;6.82;4.53;;;;;;;26.48;100.00;96906.91;5139543;27;20084;-48
2022/09/05 08:10:01;;;;;;;5.22;4.72;;;;;;;26.75;100.00;96894.56;5139425;27;20101;-49
2022/09/05 08:12:40;;;;;;;6.10;4.63;;;;;;;26.80;100.00;96901.94;5148128;27;20082;-50
2022/09/05 08:15:29;;;;;;;7.90;4.53;;;;;;;27.32;100.00;96899.28;5144033;27;20078;-49
2022/09/05 08:18:21;;;;;;;5.43;4.45;;;;;;;27.54;100.00;96899.47;5150805;27;20082;-49
2022/09/05 08:20:52;;;;;;;6.32;4.40;;;;;;;27.83;100.00;96903.00;5147349;27;20051;-51
2022/09/05 08:23:24;;;;;;;;;;;;;;;26.84;100.00;96899.59;5144419;27;20070;-52
2022/09/05 08:25:58;;;;;;;6.60;4.47;;;;;;;27.93;100.00;96892.34;5142001;27;19962;-46
2022/09/05 08:28:33;;;;;;;5.47;4.32;;;;;;;28.00;100.00;96889.47;5149570;27;20087;-49
2022/09/05 08:31:07;;;;;;;;;;;;;;;28.11;100.00;96893.16;5145536;27;20085;-52
2022/09/05 08:33:36;;;;;;;6.18;4.18;;;;;;;27.13;100.00;96895.94;5145210;27;19968;-52
2022/09/05 08:36:09;;;;;;;5.03;3.80;;;;;;;27.68;100.00;96898.09;5140380;27;20512;-52
2022/09/05 08:38:39;;;;;;;5.10;4.05;;;;;;;27.43;100.00;96897.63;5131606;27;20074;-52
2022/09/05 08:41:14;;;;;;;5.10;4.50;;;;;;;27.42;100.00;96887.81;5137201;27;20446;-49
2022/09/05 08:43:52;;;;;;;4.22;3.78;;;;;;;27.65;100.00;96892.34;5133994;27;20508;-54
2022/09/05 08:46:46;;;;;;;4.15;3.47;;;;;;;28.34;100.00;96879.44;5143583;27;20091;-48
2022/09/05 08:49:40;;;;;;;7.93;3.75;;;;;;;27.62;100.00;96880.09;5139516;27;20456;-49
2022/09/05 08:52:15;;;;;;;4.22;3.72;;;;;;;28.07;100.00;96873.84;5141836;27;20082;-49
2022/09/05 08:54:54;;;;;;;4.82;3.80;;;;;;;28.02;100.00;96871.06;5146304;27;20075;-52
2022/09/05 08:58:04;;;;;;;4.32;3.80;;;;;;;28.24;100.00;96871.16;5147995;27;20077;-50
2022/09/05 09:00:39;;;;;;;5.28;3.60;;;;;;;28.11;100.00;96869.59;5143877;27;20584;-53
2022/09/05 09:03:16;;;;;;;4.20;3.80;;;;;;;28.16;100.00;96868.84;5134729;27;20070;-49
2022/09/05 09:06:15;;;;;;;3.65;3.35;;;;;;;29.07;100.00;96863.97;5145407;27;20516;-47
2022/09/05 09:09:07;;;;;;;4.47;3.95;;;;;;;28.79;100.00;96862.22;5143633;27;20070;-50
2022/09/05 09:11:37;;;;;;;5.57;3.60;;;;;;;27.94;100.00;96860.63;5143176;27;20086;-49
2022/09/05 09:14:25;;;;;;;5.05;3.20;;;;;;;28.82;100.00;96856.28;5146168;27;20062;-49
2022/09/05 09:17:06;;;;;;;4.40;3.40;;;;;;;29.26;100.00;96858.22;5143840;27;20074;-49
2022/09/05 09:19:45;;;;;;;3.83;3.20;;;;;;;28.51;100.00;96863.19;5137263;27;20082;-51
2022/09/05 09:22:21;;;;;;;5.05;3.38;;;;;;;28.82;98.77;96859.00;5147961;27;20161;-50
2022/09/05 09:24:57;;;;;;;5.75;3.47;;;;;;;28.30;100.00;96861.22;5136044;27;20063;-48
2022/09/05 09:28:04;;;;;;;3.53;3.03;;;;;;;29.38;98.06;96852.63;5143967;27;20455;-50
2022/09/05 09:30:56;;;;;;;5.70;3.33;;;;;;;29.46;88.87;96855.75;5141577;27;20073;-47
2022/09/05 09:33:35;;;;;;;3.00;2.70;;;;;;;28.68;90.73;96848.78;5130784;27;20491;-48
2022/09/05 09:36:08;;;;;;;3.15;2.72;;;;;;;29.37;87.84;96845.56;5141129;27;20437;-49
2022/09/05 09:38:44;;;;;;;4.22;2.85;;;;;;;28.92;94.42;96854.78;5146718;27;20113;-48
2022/09/05 09:41:35;;;;;;;3.30;2.63;;;;;;;29.27;95.75;96849.81;5139916;27;20109;-53
2022/09/05 09:44:45;;;;;;;4.70;2.92;;;;;;;29.15;85.45;96851.84;5154182;27;20074;-51
2022/09/05 09:47:14;;;;;;;3.45;2.67;;;;;;;29.03;87.40;96849.25;5143650;27;20071;-48
2022/09/05 09:49:59;;;;;;;3.28;2.70;;;;;;;29.45;88.95;96850.53;5147478;27;20073;-48
2022/09/05 09:52:49;;;;;;;3.70;2.80;;;;;;;30.05;80.50;96841.38;5137529;27;20565;-47
2022/09/05 09:55:50;;;;;;;3.53;2.67;;;;;;;29.64;79.35;96840.19;5142746;27;20081;-47
2022/09/05 09:58:39;;;;;;;4.88;2.95;;;;;;;28.53;98.16;96850.19;5114287;27;20094;-51
2022/09/05 10:01:17;;;;;;;2.65;2.45;;;;;;;30.10;79.30;96844.13;5141841;27;20074;-51
2022/09/05 10:04:25;;;;;;;4.13;2.78;;;;;;;30.51;69.62;96834.38;5146298;27;20079;-46
2022/09/05 10:07:41;;;;;;;3.30;2.60;;;;;;;29.82;66.38;96845.25;5133631;27;20081;-52
2022/09/05 10:10:54;;;;;;;3.45;2.47;;;;;;;29.82;68.59;96828.09;5132485;27;20071;-51
2022/09/05 10:14:11;;;;;;;3.85;2.83;;;;;;;29.70;78.26;96833.72;5137132;27;20085;-52
2022/09/05 10:17:10;;;;;;;5.00;2.70;;;;;;;29.94;74.78;96832.31;5146126;27;20070;-55
2022/09/05 10:20:04;;;;;;;5.22;2.60;;;;;;;30.11;68.94;96843.06;5143185;27;20082;-47
2022/09/05 10:23:05;;;;;;;2.95;2.50;;;;;;;30.14;60.01;96838.97;5152875;27;20084;-54
2022/09/05 10:25:48;;;;;;;3.63;2.53;;;;;;;29.31;66.59;96848.22;5147980;27;20101;-50
2022/09/05 10:28:26;;;;;;;3.10;2.40;;;;;;;29.64;62.77;96843.72;5146729;27;20078;-53
2022/09/05 10:31:01;;;;;;;4.03;2.72;;;;;;;29.75;63.94;96833.75;5139557;27;20113;-47
2022/09/05 10:33:55;;;;;;;2.55;2.33;;;;;;;29.18;66.81;96834.22;5143037;27;20082;-48
2022/09/05 10:36:49;;;;;;;3.33;2.28;;;;;;;30.54;60.26;96821.31;5141372;27;20446;-51
2022/09/05 10:39:24;;;;;;;2.17;1.98;;;;;;;30.80;66.32;96828.59;5140998;27;20073;-49
2022/09/05 10:41:56;;;;;;;2.83;2.38;;;;;;;30.69;64.49;96818.69;5136794;27;20433;-46
2022/09/05 10:44:37;;;;;;;3.58;2.33;;;;;;;30.58;57.46;96817.00;5140498;27;20074;-47
2022/09/05 10:47:26;;;;;;;2.90;2.28;;;;;;;30.92;61.34;96818.28;5137979;27;20523;-50
2022/09/05 10:50:03;;;;;;;3.03;2.65;;;;;;;31.35;55.84;96810.00;5140625;27;20087;-47
2022/09/05 10:52:36;;;;;;;3.20;2.25;;;;;;;31.28;53.75;96812.97;5146758;27;20078;-51
2022/09/05 10:55:25;;;;;;;6.85;2.35;;;;;;;31.23;53.23;96818.38;5139257;27;20070;-48
2022/09/05 10:57:59;;;;;;;3.33;2.20;;;;;;;30.93;56.14;96817.19;5151920;27;20082;-49
2022/09/05 11:00:55;;;;;;;2.95;2.17;;;;;;;30.18;58.51;96807.47;5131951;27;20089;-54
2022/09/05 11:03:49;;;;;;;2.55;2.17;;;;;;;31.30;53.74;96804.50;5146222;27;20078;-47
2022/09/05 11:06:22;;;;;;;3.83;2.10;;;;;;;30.94;57.35;96798.97;5147682;27;20468;-48
2022/09/05 11:09:01;;;;;;;4.03;2.38;;;;;;;30.35;55.60;96800.00;5151449;27;20067;-51
2022/09/05 11:11:40;;;;;;;2.95;2.40;;;;;;;30.73;59.27;96801.56;5140049;27;20087;-48
2022/09/05 11:14:26;;;;;;;2.58;2.00;;;;;;;31.09;51.91;96801.72;5145534;27;20078;-50
2022/09/05 11:17:00;;;;;;;3.75;2.08;;;;;;;31.55;48.23;96795.59;5144425;27;20063;-54
2022/09/05 11:19:34;;;;;;;2.20;1.98;;;;;;;31.58;50.17;96795.03;5149273;27;20085;-48
2022/09/05 11:22:03;;;;;;;2.50;2.20;;;;;;;31.09;50.09;96796.28;5144555;27;20067;-49
2022/09/05 11:24:54;;;;;;;2.97;2.20;;;;;;;30.95;50.18;96795.97;5140995;27;20070;-51
2022/09/05 11:27:28;;;;;;;2.45;2.20;;;;;;;30.92;47.86;96804.66;5145790;27;20066;-47
2022/09/05 11:30:01;;;;;;;2.53;2.05;;;;;;;30.19;51.91;96796.34;5144427;27;20062;-48
2022/09/05 11:32:48;;;;;;;3.17;2.30;;;;;;;31.40;49.76;96790.94;5131359;27;20083;-52
2022/09/05 11:35:38;;;;;;;2.03;1.70;;;;;;;31.48;46.67;96784.13;5147727;27;20070;-48
2022/09/05 11:38:43;;;;;;;2.75;2.08;;;;;;;31.46;47.57;96787.13;5133153;27;20528;-49
2022/09/05 11:41:54;;;;;;;2.22;2.03;;;;;;;31.66;47.65;96792.63;5144231;27;20602;-53
2022/09/05 11:44:28;;;;;;;2.38;2.15;;;;;;;31.09;50.71;96784.56;5148472;27;20067;-51
2022/09/05 11:47:25;;;;;;;3.03;2.25;;;;;;;32.02;49.13;96781.72;5144386;27;20070;-48
2022/09/05 11:50:26;;;;;;;3.08;2.30;;;;;;;32.47;45.31;96773.78;5142204;27;20595;-49
2022/09/05 11:53:30;;;;;;;4.17;2.20;;;;;;;32.71;47.21;96777.50;5147855;27;20058;-48
2022/09/05 11:56:22;;;;;;;3.67;2.38;;;;;;;31.25;49.35;96785.41;5126077;27;20532;-54
2022/09/05 11:59:11;;;;;;;3.05;2.22;;;;;;;32.35;49.39;96771.31;5150883;27;20070;-51
2022/09/05 12:01:52;;;;;;;4.45;2.20;;;;;;;32.15;47.37;96770.25;5140989;27;20093;-47
2022/09/05 12:04:42;;;;;;;3.00;2.10;;;;;;;32.16;44.86;96776.53;5145936;27;20070;-48
2022/09/05 12:07:36;;;;;;;;;;;;;;;31.35;46.21;96777.28;5144124;27;20085;-46
2022/09/05 12:10:25;;;;;;;3.95;2.25;;;;;;;32.11;43.61;96774.63;5141073;27;19951;-50
2022/09/05 12:13:24;;;;;;;3.50;2.20;;;;;;;32.62;43.35;96762.78;5137667;27;20093;-49
2022/09/05 12:15:59;;;;;;;3.45;2.03;;;;;;;31.87;44.33;96768.13;5133693;27;20081;-49
2022/09/05 12:19:04;;;;;;;6.00;2.15;;;;;;;31.63;47.68;96770.53;5133322;27;20388;-49
2022/09/05 12:22:02;;;;;;;4.80;2.40;;;;;;;32.10;45.22;96761.25;5147541;27;20081;-50
2022/09/05 12:24:55;;;;;;;4.35;2.40;;;;;;;31.87;44.76;96759.94;5142215;27;20101;-50
2022/09/05 12:27:47;;;;;;;3.58;2.35;;;;;;;32.72;42.99;96751.81;5142017;27;20079;-49
2022/09/05 12:30:38;;;;;;;4.25;2.40;;;;;;;32.08;45.30;96739.72;5129872;27;20069;-50
2022/09/05 12:33:29;;;;;;;2.67;2.15;;;;;;;32.88;42.59;96741.66;5135771;27;20074;-50
2022/09/05 12:36:30;;;;;;;2.50;2.00;;;;;;;32.41;43.26;96753.00;5140076;27;20070;-48
2022/09/05 12:39:26;;;;;;;2.28;1.95;;;;;;;32.69;41.50;96748.84;5144348;27;20154;-48
2022/09/05 12:42:18;;;;;;;3.03;2.13;;;;;;;33.22;39.71;96743.69;5138770;27;20082;-53
2022/09/05 12:45:08;;;;;;;3.20;2.00;;;;;;;33.41;39.08;96747.38;5139348;27;20049;-49
2022/09/05 12:47:52;;;;;;;3.25;2.30;;;;;;;31.76;46.56;96742.69;5139714;27;20086;-47
2022/09/05 12:50:32;;;;;;;2.90;2.60;;;;;;;32.49;45.42;96750.56;5129262;27;20085;-50
2022/09/05 12:53:06;;;;;;;2.97;2.13;;;;;;;31.28;47.33;96749.44;5136969;27;20081;-53
2022/09/05 12:55:39;;;;;;;3.25;2.30;;;;;;;31.75;47.00;96741.06;5142390;27;20070;-50
2022/09/05 12:58:21;;;;;;;3.20;2.65;;;;;;;31.52;48.47;96739.72;5146234;27;20085;-52